Time;durP1;ratioP1;P1;durP2;ratioP2;P2;SDS_P1;SDS_P2;PMS_P1;PMS_P2;Temp;Humidity;BMP_temperature;BMP_pressure;BME280_temperature;BME280_humidity;BME280_pressure;Samples;Min_cycle;Max_cycle;Signal;HPM_P1;HPM_P2
2021/10/11 00:00:04;;;;;;;24.90;14.30;;;;;;;;;;5098389;28;20043;-61
2021/10/11 00:02:37;;;;;;;20.35;13.52;;;;;;;;;;5116385;28;20028;-61
2021/10/11 00:05:04;;;;;;;21.15;12.10;;;;;;;;;;5116747;28;20059;-61
2021/10/11 00:07:29;;;;;;;20.63;11.80;;;;;;;;;;5098275;28;20032;-61
2021/10/11 00:09:55;;;;;;;20.13;11.57;;;;;;;;;;5116433;28;20042;-61
2021/10/11 00:12:24;;;;;;;21.50;13.15;;;;;;;;;;5116362;28;20475;-61
2021/10/11 00:14:50;;;;;;;29.58;16.23;;;;;;;;;;5116347;28;20035;-61
2021/10/11 00:17:15;;;;;;;32.17;17.67;;;;;;;;;;5115870;28;20035;-61
2021/10/11 00:19:43;;;;;;;37.15;19.10;;;;;;;;;;5116142;28;20035;-61
2021/10/11 00:22:08;;;;;;;34.83;18.35;;;;;;;;;;5116136;28;20030;-61
2021/10/11 00:24:34;;;;;;;41.67;19.63;;;;;;;;;;5116258;28;20031;-61
2021/10/11 00:26:59;;;;;;;39.40;17.15;;;;;;;;;;5115733;28;20020;-61
2021/10/11 00:29:25;;;;;;;57.90;21.10;;;;;;;;;;5115978;28;20100;-61
2021/10/11 00:31:50;;;;;;;64.00;23.25;;;;;;;;;;5097657;28;20071;-61
2021/10/11 00:34:15;;;;;;;53.58;19.90;;;;;;;;;;5097757;28;20040;-61
2021/10/11 00:36:41;;;;;;;34.08;15.80;;;;;;;;;;5116432;28;20522;-61
2021/10/11 00:39:07;;;;;;;30.58;14.35;;;;;;;;;;5115937;28;20116;-61
2021/10/11 00:41:32;;;;;;;28.27;14.95;;;;;;;;;;5116170;28;20027;-61
2021/10/11 00:44:01;;;;;;;28.45;14.77;;;;;;;;;;5115841;28;20122;-60
2021/10/11 00:46:27;;;;;;;26.35;14.68;;;;;;;;;;5115893;28;20078;-61
2021/10/11 00:48:53;;;;;;;24.02;13.05;;;;;;;;;;5097220;28;20050;-61
2021/10/11 00:51:18;;;;;;;24.50;13.50;;;;;;;;;;5115746;28;20027;-61
2021/10/11 00:53:44;;;;;;;27.17;13.25;;;;;;;;;;5097242;28;20041;-61
2021/10/11 00:56:09;;;;;;;22.08;12.52;;;;;;;;;;5097644;28;20024;-61
2021/10/11 00:58:35;;;;;;;23.27;13.38;;;;;;;;;;5115882;28;20406;-61
2021/10/11 01:01:00;;;;;;;22.67;12.30;;;;;;;;;;5115467;28;20027;-61
2021/10/11 01:03:26;;;;;;;20.67;11.70;;;;;;;;;;5115387;28;20105;-61
2021/10/11 01:05:52;;;;;;;23.65;11.75;;;;;;;;;;5115655;28;20039;-61
2021/10/11 01:08:18;;;;;;;18.55;11.52;;;;;;;;;;5115303;28;20039;-61
2021/10/11 01:10:47;;;;;;;17.38;10.48;;;;;;;;;;5114822;28;20468;-61
2021/10/11 01:13:13;;;;;;;17.77;9.90;;;;;;;;;;5097139;28;20040;-61
2021/10/11 01:15:38;;;;;;;13.38;8.70;;;;;;;;;;5115180;28;20549;-61
2021/10/11 01:18:05;;;;;;;15.48;8.65;;;;;;;;;;5114899;28;20070;-61
2021/10/11 01:20:30;;;;;;;22.13;10.68;;;;;;;;;;5114974;28;20035;-61
2021/10/11 01:22:56;;;;;;;17.42;11.10;;;;;;;;;;5096596;28;20199;-61
2021/10/11 01:25:21;;;;;;;47.95;17.52;;;;;;;;;;5114843;28;20034;-61
2021/10/11 01:27:47;;;;;;;117.65;33.15;;;;;;;;;;5114737;28;20039;-61
2021/10/11 01:30:13;;;;;;;47.58;18.08;;;;;;;;;;5096201;28;20050;-61
2021/10/11 01:32:39;;;;;;;45.85;16.52;;;;;;;;;;5114923;28;20035;-61
2021/10/11 01:35:06;;;;;;;39.00;16.08;;;;;;;;;;5114821;28;20040;-61
2021/10/11 01:37:31;;;;;;;55.90;19.42;;;;;;;;;;5114020;28;20035;-61
2021/10/11 01:39:58;;;;;;;56.38;19.65;;;;;;;;;;5096719;28;20024;-61
2021/10/11 01:42:23;;;;;;;75.28;24.17;;;;;;;;;;5114918;28;20042;-61
2021/10/11 01:44:48;;;;;;;68.25;22.17;;;;;;;;;;5114802;28;20390;-61
2021/10/11 01:47:15;;;;;;;52.80;19.50;;;;;;;;;;5114730;28;20517;-61
2021/10/11 01:49:42;;;;;;;40.90;16.90;;;;;;;;;;5096173;28;20094;-61
2021/10/11 01:52:08;;;;;;;30.75;13.57;;;;;;;;;;5114257;28;20100;-61
2021/10/11 01:54:34;;;;;;;21.63;11.73;;;;;;;;;;5114098;28;20028;-61
2021/10/11 01:57:00;;;;;;;20.38;11.57;;;;;;;;;;5114333;28;20084;-62
2021/10/11 01:59:26;;;;;;;18.13;10.05;;;;;;;;;;5096237;28;20023;-62
2021/10/11 02:01:52;;;;;;;16.90;10.25;;;;;;;;;;5114345;28;20036;-62
2021/10/11 02:04:18;;;;;;;18.40;10.75;;;;;;;;;;5096427;28;20036;-62
2021/10/11 02:06:43;;;;;;;15.57;10.00;;;;;;;;;;5114196;28;20102;-62
2021/10/11 02:09:09;;;;;;;19.65;10.68;;;;;;;;;;5114278;28;20032;-61
2021/10/11 02:11:34;;;;;;;17.58;9.85;;;;;;;;;;5114188;28;20104;-61
2021/10/11 02:14:00;;;;;;;19.20;10.77;;;;;;;;;;5095611;28;20034;-61
2021/10/11 02:16:28;;;;;;;16.92;10.45;;;;;;;;;;5114233;28;20039;-61
2021/10/11 02:18:54;;;;;;;21.83;10.40;;;;;;;;;;5114118;28;20022;-61
2021/10/11 02:21:19;;;;;;;20.65;11.32;;;;;;;;;;5114495;28;20035;-61
2021/10/11 02:23:45;;;;;;;18.27;11.10;;;;;;;;;;5114446;28;20122;-61
2021/10/11 02:26:11;;;;;;;17.00;10.07;;;;;;;;;;5113809;28;20039;-61
2021/10/11 02:28:37;;;;;;;18.35;11.18;;;;;;;;;;5114118;28;20390;-61
2021/10/11 02:31:02;;;;;;;20.50;11.32;;;;;;;;;;5113743;28;20043;-61
2021/10/11 02:33:28;;;;;;;18.70;10.98;;;;;;;;;;5113716;28;20387;-61
2021/10/11 02:35:54;;;;;;;17.90;10.35;;;;;;;;;;5114055;28;20035;-61
2021/10/11 02:38:19;;;;;;;16.58;10.52;;;;;;;;;;5113797;28;20061;-61
2021/10/11 02:40:44;;;;;;;17.40;9.70;;;;;;;;;;5095460;28;20075;-61
2021/10/11 02:43:10;;;;;;;16.10;9.75;;;;;;;;;;5113768;28;20030;-61
2021/10/11 02:45:35;;;;;;;17.67;9.32;;;;;;;;;;5113710;28;20047;-61
2021/10/11 02:48:04;;;;;;;20.25;10.57;;;;;;;;;;5113550;28;20016;-61
2021/10/11 02:50:30;;;;;;;15.27;9.60;;;;;;;;;;5117224;28;20096;-61
2021/10/11 02:52:55;;;;;;;16.25;9.35;;;;;;;;;;5117977;28;20035;-62
2021/10/11 02:55:21;;;;;;;17.27;9.82;;;;;;;;;;5117817;28;20059;-62
2021/10/11 02:57:47;;;;;;;18.02;10.13;;;;;;;;;;5117798;28;20028;-61
2021/10/11 03:00:14;;;;;;;15.27;10.10;;;;;;;;;;5117529;28;20047;-61
2021/10/11 03:02:40;;;;;;;22.13;10.80;;;;;;;;;;5117855;28;20031;-61
2021/10/11 03:05:06;;;;;;;16.75;10.75;;;;;;;;;;5117736;28;20038;-62
2021/10/11 03:07:32;;;;;;;20.70;12.25;;;;;;;;;;5117592;28;20062;-61
2021/10/11 03:09:57;;;;;;;20.08;10.45;;;;;;;;;;5117528;28;20075;-61
2021/10/11 03:12:23;;;;;;;16.48;9.32;;;;;;;;;;5099341;28;20541;-61
2021/10/11 03:14:49;;;;;;;15.90;9.68;;;;;;;;;;5117495;28;20038;-61
2021/10/11 03:17:15;;;;;;;25.75;12.70;;;;;;;;;;5099326;28;20360;-61
2021/10/11 03:19:40;;;;;;;30.88;13.88;;;;;;;;;;5117420;28;20046;-61
2021/10/11 03:22:06;;;;;;;28.40;14.40;;;;;;;;;;5117368;28;20032;-61
2021/10/11 03:24:31;;;;;;;31.85;14.20;;;;;;;;;;5098934;28;20047;-61
2021/10/11 03:26:57;;;;;;;27.98;14.35;;;;;;;;;;5117199;28;20078;-61
2021/10/11 03:29:22;;;;;;;22.20;12.23;;;;;;;;;;5117568;28;20044;-61
2021/10/11 03:31:48;;;;;;;20.60;10.68;;;;;;;;;;5117320;28;20039;-61
2021/10/11 03:34:14;;;;;;;19.45;10.50;;;;;;;;;;5117207;28;20126;-61
2021/10/11 03:36:40;;;;;;;16.98;10.80;;;;;;;;;;5117100;28;20497;-61
2021/10/11 03:39:06;;;;;;;19.70;10.77;;;;;;;;;;5098830;28;20114;-61
2021/10/11 03:41:33;;;;;;;19.77;11.45;;;;;;;;;;5116942;28;20429;-61
2021/10/11 03:43:59;;;;;;;18.92;11.93;;;;;;;;;;5117184;28;20058;-62
2021/10/11 03:46:25;;;;;;;29.55;13.98;;;;;;;;;;5116934;28;20081;-62
2021/10/11 03:48:50;;;;;;;30.52;15.10;;;;;;;;;;5116734;28;20035;-62
2021/10/11 03:51:16;;;;;;;24.88;13.80;;;;;;;;;;5116684;28;20180;-62
2021/10/11 03:53:41;;;;;;;26.40;13.38;;;;;;;;;;5116695;28;20035;-61
2021/10/11 03:56:08;;;;;;;25.92;15.32;;;;;;;;;;5116313;28;20015;-60
2021/10/11 03:58:33;;;;;;;27.08;14.15;;;;;;;;;;5116845;28;20047;-61
2021/10/11 04:00:59;;;;;;;22.10;11.95;;;;;;;;;;5115460;28;20016;-60
2021/10/11 04:03:24;;;;;;;21.08;10.73;;;;;;;;;;5116769;28;20032;-61
2021/10/11 04:05:51;;;;;;;18.05;11.20;;;;;;;;;;5116395;28;20027;-61
2021/10/11 04:08:20;;;;;;;25.90;12.85;;;;;;;;;;5115961;28;20097;-61
2021/10/11 04:13:19;;;;;;;22.02;13.13;;;;;;;;;;5116178;28;20036;-60
2021/10/11 04:19:19;;;;;;;25.73;13.50;;;;;;;;;;5116654;28;20072;-60
2021/10/11 04:25:21;;;;;;;19.30;11.93;;;;;;;;;;5116773;28;20046;-61
2021/10/11 04:34:56;;;;;;;71.65;47.80;;;;;;;;;;5116595;28;20046;-61
2021/10/11 04:40:57;;;;;;;25.23;16.55;;;;;;;;;;5116201;28;20152;-61
2021/10/11 04:46:58;;;;;;;38.25;20.90;;;;;;;;;;5116091;28;20031;-61
2021/10/11 04:53:00;;;;;;;22.17;13.88;;;;;;;;;;5116333;28;20058;-61
2021/10/11 04:59:00;;;;;;;30.63;16.63;;;;;;;;;;5116125;28;20164;-61
2021/10/11 05:05:01;;;;;;;23.23;14.40;;;;;;;;;;5115753;28;20102;-61
2021/10/11 05:11:03;;;;;;;202.40;81.72;;;;;;;;;;5115625;28;20549;-61
2021/10/11 05:17:03;;;;;;;81.78;35.80;;;;;;;;;;5115548;28;20097;-61
2021/10/11 05:23:04;;;;;;;25.58;15.13;;;;;;;;;;5115689;28;20027;-61
2021/10/11 05:29:04;;;;;;;23.52;14.10;;;;;;;;;;5115577;28;20399;-61
2021/10/11 05:38:19;;;;;;;23.88;13.95;;;;;;;;;;5115343;28;20061;-61
2021/10/11 05:44:19;;;;;;;23.65;14.45;;;;;;;;;;5114979;28;20030;-61
2021/10/11 05:50:20;;;;;;;20.17;12.25;;;;;;;;;;5115131;28;20026;-61
2021/10/11 05:56:19;;;;;;;21.70;12.63;;;;;;;;;;5114997;28;20031;-61
2021/10/11 06:02:21;;;;;;;19.90;11.38;;;;;;;;;;5114891;28;20076;-61
2021/10/11 06:08:21;;;;;;;16.17;10.07;;;;;;;;;;5114829;28;20074;-61
2021/10/11 06:14:22;;;;;;;18.90;11.13;;;;;;;;;;5114442;28;20521;-60
2021/10/11 06:20:24;;;;;;;33.33;16.35;;;;;;;;;;5114639;28;20026;-60
2021/10/11 06:26:25;;;;;;;67.05;26.95;;;;;;;;;;5114554;28;20021;-60
2021/10/11 06:32:26;;;;;;;67.93;28.58;;;;;;;;;;5114391;28;20026;-60
2021/10/11 06:41:49;;;;;;;54.08;25.23;;;;;;;;;;5114329;28;20070;-60
2021/10/11 06:47:50;;;;;;;47.42;23.55;;;;;;;;;;5114281;28;20032;-60
2021/10/11 06:53:50;;;;;;;64.72;24.92;;;;;;;;;;5113982;28;20035;-60
2021/10/11 07:10:06;;;;;;;51.08;26.45;;;;;;;;;;5114141;28;20139;-60
2021/10/11 07:16:06;;;;;;;55.05;28.52;;;;;;;;;;5113815;28;20033;-60
2021/10/11 07:22:07;;;;;;;44.80;25.85;;;;;;;;;;5113956;28;20158;-61
2021/10/11 07:28:09;;;;;;;51.00;25.35;;;;;;;;;;5113918;28;20085;-60
2021/10/11 07:34:10;;;;;;;46.25;23.25;;;;;;;;;;5113570;28;20130;-60
2021/10/11 07:43:32;;;;;;;47.17;25.00;;;;;;;;;;5117369;28;20058;-60
2021/10/11 07:49:34;;;;;;;51.10;26.65;;;;;;;;;;5117503;28;20031;-60
2021/10/11 07:55:33;;;;;;;50.38;26.08;;;;;;;;;;5117409;28;20039;-61
2021/10/11 08:01:35;;;;;;;43.78;23.92;;;;;;;;;;5117220;28;20140;-61
2021/10/11 08:07:36;;;;;;;45.63;25.00;;;;;;;;;;5117172;28;20510;-61
2021/10/11 08:13:37;;;;;;;46.45;25.83;;;;;;;;;;5116810;28;20045;-61
2021/10/11 08:19:38;;;;;;;46.00;23.27;;;;;;;;;;5116861;28;20027;-61
2021/10/11 08:22:05;;;;;;;47.92;25.23;;;;;;;;;;5116378;28;20032;-61
2021/10/11 08:24:31;;;;;;;47.35;26.00;;;;;;;;;;5097954;28;20027;-61
2021/10/11 08:26:56;;;;;;;55.13;29.13;;;;;;;;;;5116144;28;20239;-61
2021/10/11 08:29:22;;;;;;;52.40;26.92;;;;;;;;;;5116274;28;20065;-61
2021/10/11 08:31:48;;;;;;;47.88;25.52;;;;;;;;;;5097788;28;20040;-61
2021/10/11 08:34:13;;;;;;;43.47;23.73;;;;;;;;;;5115842;28;20024;-61
2021/10/11 08:43:49;;;;;;;49.97;25.63;;;;;;;;;;5116460;28;20098;-61
2021/10/11 08:49:50;;;;;;;46.92;23.75;;;;;;;;;;5116344;28;20030;-61
2021/10/11 08:55:51;;;;;;;47.60;23.63;;;;;;;;;;5116222;28;20030;-61
2021/10/11 09:12:37;;;;;;;58.63;23.63;;;;;;;;;;5053059;28;20031;-61
2021/10/11 09:15:03;;;;;;;44.63;22.83;;;;;;;;;;5052179;28;20436;-61
2021/10/11 09:17:32;;;;;;;60.13;27.52;;;;;;;;;;5052569;28;20037;-61
2021/10/11 09:20:19;;;;;;;43.30;21.67;;;;;;;;;;5052662;28;20048;-61
2021/10/11 09:22:46;;;;;;;44.42;21.98;;;;;;;;;;5052282;28;20033;-61
2021/10/11 09:28:47;;;;;;;48.97;24.00;;;;;;;;;;5052961;28;20124;-61
2021/10/11 09:45:09;;;;;;;39.08;19.55;;;;;;;;;;5115279;28;20076;-61
2021/10/11 09:51:09;;;;;;;34.55;19.15;;;;;;;;;;5115175;28;20528;-61
2021/10/11 09:57:11;;;;;;;45.65;20.45;;;;;;;;;;5115037;28;20047;-61
2021/10/11 10:03:12;;;;;;;36.13;18.27;;;;;;;;;;5114938;28;20030;-61
2021/10/11 10:09:15;;;;;;;36.35;17.35;;;;;;;;;;5114833;28;20037;-61
2021/10/11 10:15:28;;;;;;;39.80;19.45;;;;;;;;;;5114740;28;20106;-61
2021/10/11 10:21:36;;;;;;;48.85;23.95;;;;;;;;;;5114633;28;20087;-61
2021/10/11 10:27:39;;;;;;;48.40;24.00;;;;;;;;;;5114547;28;20069;-62
2021/10/11 10:33:41;;;;;;;46.85;23.50;;;;;;;;;;5114236;28;20088;-62
2021/10/11 10:44:12;;;;;;;47.58;23.50;;;;;;;;;;5114365;28;20038;-61
2021/10/11 10:54:06;;;;;;;36.42;19.40;;;;;;;;;;5114084;28;20039;-61
2021/10/11 11:00:13;;;;;;;44.78;21.73;;;;;;;;;;5113960;28;20086;-61
2021/10/11 11:06:14;;;;;;;41.97;21.30;;;;;;;;;;5114168;28;20116;-61
2021/10/11 11:12:14;;;;;;;37.75;20.52;;;;;;;;;;5117939;28;20110;-61
2021/10/11 11:18:16;;;;;;;41.55;22.33;;;;;;;;;;5118136;28;20022;-62
2021/10/11 11:24:17;;;;;;;43.42;22.63;;;;;;;;;;5118048;28;20601;-61
2021/10/11 11:30:18;;;;;;;41.38;22.10;;;;;;;;;;5117843;28;20019;-62
2021/10/11 11:36:19;;;;;;;32.55;17.45;;;;;;;;;;5117815;28;20494;-62
2021/10/11 11:45:44;;;;;;;32.85;17.67;;;;;;;;;;5117379;28;20107;-62
2021/10/11 11:48:12;;;;;;;33.97;17.77;;;;;;;;;;5116898;28;20085;-61
2021/10/11 11:50:38;;;;;;;29.13;16.52;;;;;;;;;;5117092;28;20030;-61
2021/10/11 11:53:06;;;;;;;31.85;18.27;;;;;;;;;;5116861;28;20039;-62
2021/10/11 11:55:32;;;;;;;36.17;17.17;;;;;;;;;;5098282;28;20027;-61
2021/10/11 11:57:58;;;;;;;32.63;17.52;;;;;;;;;;5113720;28;20039;-61
2021/10/11 12:00:24;;;;;;;33.08;16.80;;;;;;;;;;5116537;28;20023;-61
2021/10/11 12:02:50;;;;;;;31.88;16.58;;;;;;;;;;5116583;28;20044;-61
2021/10/11 12:08:51;;;;;;;32.75;15.88;;;;;;;;;;5117140;28;20168;-61
2021/10/11 12:14:51;;;;;;;27.02;14.20;;;;;;;;;;5116711;28;20123;-61
2021/10/11 12:20:53;;;;;;;30.13;15.27;;;;;;;;;;5116937;28;20498;-61
2021/10/11 12:27:01;;;;;;;23.70;14.27;;;;;;;;;;5116831;28;20026;-61
2021/10/11 12:33:02;;;;;;;24.48;12.90;;;;;;;;;;5116392;28;20047;-61
2021/10/11 12:43:10;;;;;;;17.13;11.05;;;;;;;;;;5114226;28;20039;-60
2021/10/11 12:49:31;;;;;;;23.42;11.63;;;;;;;;;;5096040;28;20099;-60
2021/10/11 12:55:32;;;;;;;23.98;10.35;;;;;;;;;;5095871;28;20039;-60
2021/10/11 13:01:34;;;;;;;17.63;10.48;;;;;;;;;;5095753;28;20058;-60
2021/10/11 13:07:35;;;;;;;16.65;10.30;;;;;;;;;;5095630;28;20093;-61
2021/10/11 13:13:36;;;;;;;15.75;9.63;;;;;;;;;;5095382;28;20089;-61
2021/10/11 13:19:39;;;;;;;23.13;14.00;;;;;;;;;;5095425;28;20177;-60
2021/10/11 13:25:41;;;;;;;16.92;9.68;;;;;;;;;;5095328;28;20149;-61
2021/10/11 13:40:48;;;;;;;16.02;9.48;;;;;;;;;;5094593;28;20035;-62
2021/10/11 14:26:21;;;;;;;17.08;10.00;;;;;;;;;;5114714;28;20040;-61
2021/10/11 15:59:51;;;;;;;;;;;;;;;;;;5114171;28;20044;-61
2021/10/11 16:04:42;;;;;;;30.83;15.23;;;;;;;;;;5111197;28;20058;-62
2021/10/11 16:07:10;;;;;;;33.42;15.70;;;;;;;;;;5109708;28;20060;-62
2021/10/11 16:09:36;;;;;;;31.85;15.13;;;;;;;;;;5107368;28;20066;-62
2021/10/11 16:12:02;;;;;;;31.25;14.55;;;;;;;;;;5107319;28;20829;-62
2021/10/11 16:14:27;;;;;;;37.35;16.98;;;;;;;;;;5111286;28;20063;-62
2021/10/11 16:16:53;;;;;;;29.20;14.65;;;;;;;;;;5113142;28;20042;-62
2021/10/11 16:19:19;;;;;;;34.30;15.75;;;;;;;;;;5113382;28;20032;-62
2021/10/11 16:21:46;;;;;;;36.78;17.23;;;;;;;;;;5113523;28;20047;-62
2021/10/11 16:24:11;;;;;;;38.58;17.73;;;;;;;;;;5114043;28;20122;-62
2021/10/11 16:26:38;;;;;;;39.53;16.17;;;;;;;;;;5113922;28;20153;-62
2021/10/11 16:29:03;;;;;;;34.05;15.63;;;;;;;;;;5113627;28;20425;-62
2021/10/11 16:31:29;;;;;;;34.85;15.10;;;;;;;;;;5112900;28;20044;-62
2021/10/11 16:33:54;;;;;;;33.83;15.90;;;;;;;;;;5112838;28;20050;-62
2021/10/11 16:36:20;;;;;;;40.08;17.17;;;;;;;;;;5113284;28;20023;-62
2021/10/11 16:38:46;;;;;;;37.35;18.08;;;;;;;;;;5113475;28;20011;-62
2021/10/11 16:41:13;;;;;;;46.25;21.45;;;;;;;;;;5113263;28;20078;-62
2021/10/11 16:43:39;;;;;;;43.47;23.65;;;;;;;;;;5112997;28;20598;-62
2021/10/11 16:46:05;;;;;;;63.42;29.90;;;;;;;;;;5113387;28;20118;-62
2021/10/11 16:48:31;;;;;;;61.28;29.67;;;;;;;;;;5112842;28;20432;-62
2021/10/11 16:50:57;;;;;;;58.80;28.88;;;;;;;;;;5113029;28;20051;-62
2021/10/11 16:53:23;;;;;;;56.03;28.38;;;;;;;;;;5112700;28;20043;-62
2021/10/11 16:55:48;;;;;;;49.50;24.98;;;;;;;;;;5113102;28;20034;-62
2021/10/11 16:58:14;;;;;;;44.88;23.52;;;;;;;;;;5112608;28;20490;-62
2021/10/11 17:00:40;;;;;;;55.33;25.58;;;;;;;;;;5112226;28;20035;-62
2021/10/11 17:03:06;;;;;;;71.45;29.20;;;;;;;;;;5113039;28;20087;-62
2021/10/11 17:05:31;;;;;;;94.22;32.83;;;;;;;;;;5112574;28;20035;-62
2021/10/11 17:07:58;;;;;;;83.25;31.77;;;;;;;;;;5111964;28;20031;-61
2021/10/11 17:10:27;;;;;;;69.78;29.08;;;;;;;;;;5093511;28;20047;-61
2021/10/11 17:12:53;;;;;;;82.85;30.13;;;;;;;;;;5111910;28;20035;-61
2021/10/11 17:15:21;;;;;;;68.53;27.95;;;;;;;;;;5112069;28;20494;-61
2021/10/11 17:17:47;;;;;;;67.05;27.88;;;;;;;;;;5112576;28;20023;-62
2021/10/11 17:20:17;;;;;;;71.43;31.00;;;;;;;;;;5112214;28;20035;-61
2021/10/11 17:22:43;;;;;;;72.70;31.08;;;;;;;;;;5111848;28;20034;-61
2021/10/11 17:25:11;;;;;;;67.15;29.10;;;;;;;;;;5111627;28;20039;-62
2021/10/11 17:27:38;;;;;;;68.45;30.58;;;;;;;;;;5111378;28;20028;-62
2021/10/11 17:30:04;;;;;;;64.53;29.25;;;;;;;;;;5111729;28;20055;-61
2021/10/11 17:32:29;;;;;;;65.38;31.05;;;;;;;;;;5112086;28;20545;-61
2021/10/11 17:34:55;;;;;;;76.05;29.60;;;;;;;;;;5112237;28;20046;-62
2021/10/11 17:37:20;;;;;;;62.97;28.13;;;;;;;;;;5112157;28;20030;-61
2021/10/11 17:39:46;;;;;;;57.70;29.52;;;;;;;;;;5110055;28;20379;-62
2021/10/11 17:42:12;;;;;;;69.72;34.38;;;;;;;;;;5110254;28;20042;-61
2021/10/11 17:44:38;;;;;;;75.18;36.05;;;;;;;;;;5111487;28;20055;-61
2021/10/11 17:47:05;;;;;;;108.70;44.08;;;;;;;;;;5111484;28;20040;-61
2021/10/11 17:49:30;;;;;;;100.47;44.30;;;;;;;;;;5111297;28;20158;-61
2021/10/11 17:51:55;;;;;;;88.70;42.55;;;;;;;;;;5111401;28;20122;-61
2021/10/11 17:54:21;;;;;;;107.88;51.88;;;;;;;;;;5111471;28;20584;-61
2021/10/11 17:56:48;;;;;;;132.73;59.58;;;;;;;;;;5111832;28;20477;-61
2021/10/11 17:59:14;;;;;;;124.97;57.60;;;;;;;;;;5111416;28;20088;-61
2021/10/11 18:01:39;;;;;;;130.85;63.28;;;;;;;;;;5110800;28;20040;-61
2021/10/11 18:04:05;;;;;;;129.55;64.55;;;;;;;;;;5092406;28;20036;-61
2021/10/11 18:06:31;;;;;;;127.05;60.60;;;;;;;;;;5111393;28;20032;-61
2021/10/11 18:08:56;;;;;;;107.20;51.50;;;;;;;;;;5110631;28;20035;-60
2021/10/11 18:11:22;;;;;;;90.97;46.95;;;;;;;;;;5110563;28;20403;-61
2021/10/11 18:13:48;;;;;;;103.80;49.63;;;;;;;;;;5091713;28;20434;-61
2021/10/11 18:16:13;;;;;;;90.72;45.38;;;;;;;;;;5110582;28;20034;-60
2021/10/11 18:18:40;;;;;;;81.65;42.70;;;;;;;;;;5092945;28;20071;-61
2021/10/11 18:21:05;;;;;;;75.15;38.05;;;;;;;;;;5110190;28;20028;-61
2021/10/11 18:23:31;;;;;;;77.05;38.80;;;;;;;;;;5110833;28;20833;-61
2021/10/11 18:25:59;;;;;;;79.28;40.00;;;;;;;;;;5110744;28;20027;-61
2021/10/11 18:28:25;;;;;;;96.32;45.00;;;;;;;;;;5111108;28;20086;-61
2021/10/11 18:30:51;;;;;;;100.50;46.35;;;;;;;;;;5110592;28;20067;-61
2021/10/11 18:33:16;;;;;;;100.07;47.80;;;;;;;;;;5110420;28;20594;-61
2021/10/11 18:35:42;;;;;;;95.93;47.13;;;;;;;;;;5110112;28;20031;-60
2021/10/11 18:38:07;;;;;;;99.13;45.90;;;;;;;;;;5109300;28;20122;-61
2021/10/11 18:40:33;;;;;;;106.18;49.65;;;;;;;;;;5109208;28;20575;-61
2021/10/11 18:42:59;;;;;;;102.05;47.83;;;;;;;;;;5108962;28;20046;-61
2021/10/11 18:45:24;;;;;;;100.78;48.53;;;;;;;;;;5109458;28;20422;-61
2021/10/11 18:47:50;;;;;;;102.70;48.30;;;;;;;;;;5110058;28;20433;-61
2021/10/11 18:50:16;;;;;;;101.22;47.05;;;;;;;;;;5110160;28;20031;-61
2021/10/11 18:52:42;;;;;;;98.72;46.05;;;;;;;;;;5109685;28;20031;-61
2021/10/11 18:55:08;;;;;;;95.95;44.60;;;;;;;;;;5110447;28;20094;-61
2021/10/11 18:57:33;;;;;;;103.18;50.40;;;;;;;;;;5110093;28;20526;-61
2021/10/11 18:59:59;;;;;;;100.40;49.80;;;;;;;;;;5110173;28;20067;-61
2021/10/11 19:02:25;;;;;;;106.57;52.22;;;;;;;;;;5108654;28;20076;-61
2021/10/11 19:04:50;;;;;;;112.40;53.75;;;;;;;;;;5109168;28;20487;-61
2021/10/11 19:07:18;;;;;;;110.95;53.42;;;;;;;;;;5108551;28;20487;-63
2021/10/11 19:09:58;;;;;;;107.72;54.72;;;;;;;;;;5109356;28;20039;-61
2021/10/11 19:12:24;;;;;;;108.45;52.45;;;;;;;;;;5109344;28;20043;-61
2021/10/11 19:14:49;;;;;;;96.80;46.92;;;;;;;;;;5109803;28;20085;-61
2021/10/11 19:17:15;;;;;;;85.80;43.20;;;;;;;;;;5110328;28;20031;-62
2021/10/11 19:19:40;;;;;;;94.72;47.00;;;;;;;;;;5110677;28;20023;-61
2021/10/11 19:22:07;;;;;;;101.03;48.63;;;;;;;;;;5109911;28;20070;-62
2021/10/11 19:24:32;;;;;;;104.55;52.03;;;;;;;;;;5110138;28;20115;-61
2021/10/11 19:26:58;;;;;;;106.95;53.42;;;;;;;;;;5110348;28;20177;-61
2021/10/11 19:29:23;;;;;;;113.72;56.53;;;;;;;;;;5110576;28;20040;-61
2021/10/11 19:31:49;;;;;;;122.75;60.67;;;;;;;;;;5112093;28;20035;-61
2021/10/11 19:34:14;;;;;;;123.60;60.00;;;;;;;;;;5113798;28;20032;-61
2021/10/11 19:36:41;;;;;;;115.65;56.13;;;;;;;;;;5114275;28;20046;-61
2021/10/11 19:39:06;;;;;;;113.05;58.63;;;;;;;;;;5114344;28;20016;-61
2021/10/11 19:41:32;;;;;;;122.47;61.03;;;;;;;;;;5095315;28;20373;-61
2021/10/11 19:43:59;;;;;;;121.43;64.65;;;;;;;;;;5112983;28;20053;-61
2021/10/11 19:46:25;;;;;;;125.68;64.38;;;;;;;;;;5113937;28;20128;-61
2021/10/11 19:48:51;;;;;;;122.82;63.38;;;;;;;;;;5114004;28;20039;-61
2021/10/11 19:51:34;;;;;;;122.80;61.90;;;;;;;;;;5114181;28;20159;-60
2021/10/11 19:54:00;;;;;;;111.47;60.20;;;;;;;;;;5113549;28;20043;-61
2021/10/11 19:56:26;;;;;;;107.95;55.05;;;;;;;;;;5113894;28;20030;-61
2021/10/11 19:58:51;;;;;;;93.57;51.38;;;;;;;;;;5113473;28;20484;-61
2021/10/11 20:01:17;;;;;;;106.10;54.90;;;;;;;;;;5113490;28;20080;-61
2021/10/11 20:03:43;;;;;;;103.68;55.08;;;;;;;;;;5113221;28;20123;-61
2021/10/11 20:06:08;;;;;;;114.05;56.72;;;;;;;;;;5113137;28;20144;-61
2021/10/11 20:08:34;;;;;;;118.80;58.85;;;;;;;;;;5113250;28;20051;-61
2021/10/11 20:11:00;;;;;;;117.47;58.03;;;;;;;;;;5112867;28;20028;-61
2021/10/11 20:13:26;;;;;;;132.85;62.80;;;;;;;;;;5113097;28;20051;-61
2021/10/11 20:15:54;;;;;;;190.05;79.93;;;;;;;;;;5113032;28;20035;-61
2021/10/11 20:18:19;;;;;;;137.35;64.95;;;;;;;;;;5113296;28;20078;-61
2021/10/11 20:20:46;;;;;;;105.32;52.90;;;;;;;;;;5112979;28;20051;-61
2021/10/11 20:23:12;;;;;;;101.55;52.30;;;;;;;;;;5112893;28;20051;-61
2021/10/11 20:25:38;;;;;;;104.88;51.83;;;;;;;;;;5112291;28;20055;-61
2021/10/11 20:28:04;;;;;;;101.28;54.33;;;;;;;;;;5110970;28;20067;-61
2021/10/11 20:30:31;;;;;;;105.40;51.47;;;;;;;;;;5110932;28;20380;-61
2021/10/11 20:32:59;;;;;;;105.90;52.75;;;;;;;;;;5110450;28;20048;-61
2021/10/11 20:35:24;;;;;;;104.88;52.28;;;;;;;;;;5111058;28;20027;-61
2021/10/11 20:41:25;;;;;;;143.05;70.20;;;;;;;;;;5116667;28;20147;-60
2021/10/11 20:50:54;;;;;;;120.03;52.47;;;;;;;;;;5116364;28;20165;-61
2021/10/11 20:56:55;;;;;;;121.10;49.00;;;;;;;;;;5116053;28;20455;-61
2021/10/11 20:59:21;;;;;;;98.35;46.78;;;;;;;;;;5115653;28;20059;-61
2021/10/11 21:01:46;;;;;;;99.72;46.88;;;;;;;;;;5115597;28;20110;-61
2021/10/11 21:04:14;;;;;;;97.15;47.58;;;;;;;;;;5115573;28;20441;-61
2021/10/11 21:06:39;;;;;;;99.63;48.65;;;;;;;;;;5115669;28;20483;-63
2021/10/11 21:09:05;;;;;;;87.55;45.63;;;;;;;;;;5115468;28;20032;-61
2021/10/11 21:11:31;;;;;;;98.60;47.28;;;;;;;;;;5114835;28;20027;-61
2021/10/11 21:13:56;;;;;;;97.45;45.08;;;;;;;;;;5115167;28;20043;-63
2021/10/11 21:16:23;;;;;;;94.18;45.88;;;;;;;;;;5115348;28;20027;-61
2021/10/11 21:18:49;;;;;;;95.15;46.38;;;;;;;;;;5115122;28;20035;-62
2021/10/11 21:21:15;;;;;;;97.47;47.50;;;;;;;;;;5115229;28;20024;-61
2021/10/11 21:23:40;;;;;;;113.65;52.70;;;;;;;;;;5115253;28;20036;-61
2021/10/11 21:26:09;;;;;;;103.25;51.45;;;;;;;;;;5115405;28;20042;-61
2021/10/11 21:28:35;;;;;;;96.40;48.63;;;;;;;;;;5096982;28;20403;-62
2021/10/11 21:31:00;;;;;;;94.88;47.17;;;;;;;;;;5115063;28;20038;-61
2021/10/11 21:33:26;;;;;;;96.63;48.72;;;;;;;;;;5114774;28;20040;-61
2021/10/11 21:35:51;;;;;;;94.20;49.30;;;;;;;;;;5115269;28;20037;-61
2021/10/11 21:38:17;;;;;;;96.15;48.22;;;;;;;;;;5114896;28;20040;-61
2021/10/11 21:40:42;;;;;;;88.20;45.97;;;;;;;;;;5097134;28;20030;-61
2021/10/11 21:43:12;;;;;;;95.35;49.55;;;;;;;;;;5114813;28;20031;-61
2021/10/11 21:45:38;;;;;;;90.03;46.67;;;;;;;;;;5114880;28;20084;-61
2021/10/11 21:48:07;;;;;;;80.10;43.17;;;;;;;;;;5096173;28;20441;-61
2021/10/11 21:50:33;;;;;;;76.82;40.42;;;;;;;;;;5114838;28;20480;-62
2021/10/11 21:52:58;;;;;;;72.10;38.60;;;;;;;;;;5096140;28;20472;-62
2021/10/11 21:55:24;;;;;;;78.63;44.60;;;;;;;;;;5114495;28;20077;-61
2021/10/11 21:57:50;;;;;;;96.43;55.92;;;;;;;;;;5079331;28;20027;-62
2021/10/11 22:00:30;;;;;;;119.50;63.88;;;;;;;;;;5114540;28;20035;-61
2021/10/11 22:02:56;;;;;;;;;;;;;;;;;;5114610;28;20032;-62
2021/10/11 22:05:21;;;;;;;96.10;50.95;;;;;;;;;;5113671;28;19908;-62
2021/10/11 22:07:47;;;;;;;92.95;49.38;;;;;;;;;;5114564;28;20123;-62
2021/10/11 22:10:13;;;;;;;93.47;46.10;;;;;;;;;;5114297;28;20047;-61
2021/10/11 22:12:38;;;;;;;80.07;41.25;;;;;;;;;;5114152;28;20043;-65
2021/10/11 22:15:04;;;;;;;90.95;43.08;;;;;;;;;;5114437;28;20394;-65
2021/10/11 22:17:31;;;;;;;95.10;45.03;;;;;;;;;;5096593;28;20040;-65
2021/10/11 22:19:56;;;;;;;86.68;43.33;;;;;;;;;;5114240;28;20080;-64
2021/10/11 22:22:22;;;;;;;77.25;38.72;;;;;;;;;;5114179;28;20032;-65
2021/10/11 22:24:48;;;;;;;74.50;38.78;;;;;;;;;;5114337;28;20023;-66